createdAt,value
2023-04-27T00:00:42.493Z,24.83
2023-04-27T00:01:42.591Z,24.83
2023-04-27T00:02:42.649Z,24.85
2023-04-27T00:03:42.739Z,24.84
2023-04-27T00:04:43.200Z,24.84
2023-04-27T00:05:43.038Z,24.84
2023-04-27T00:06:42.816Z,24.83
2023-04-27T00:07:42.861Z,24.83
2023-04-27T00:08:42.921Z,24.84
2023-04-27T00:09:42.977Z,24.84
2023-04-27T00:10:43.046Z,24.84
2023-04-27T00:11:43.093Z,24.84
2023-04-27T00:12:43.144Z,24.84
2023-04-27T00:13:43.207Z,24.84
2023-04-27T00:14:43.251Z,24.83
2023-04-27T00:15:43.292Z,24.84
2023-04-27T00:16:43.358Z,24.84
2023-04-27T00:17:43.499Z,24.84
2023-04-27T00:18:43.444Z,24.84
2023-04-27T00:19:43.514Z,24.84
2023-04-27T00:20:43.548Z,24.84
2023-04-27T00:21:43.612Z,24.84
2023-04-27T00:22:43.659Z,24.84
2023-04-27T00:23:43.705Z,24.84
2023-04-27T00:24:43.763Z,24.84
2023-04-27T00:25:43.869Z,24.84
2023-04-27T00:26:43.881Z,24.84
2023-04-27T00:27:43.951Z,24.84
2023-04-27T00:28:43.991Z,24.84
2023-04-27T00:29:44.091Z,24.84
2023-04-27T00:30:44.146Z,24.84
2023-04-27T00:31:44.243Z,24.84
2023-04-27T00:32:44.262Z,24.83
2023-04-27T00:33:44.316Z,24.84
2023-04-27T00:34:44.366Z,24.84
2023-04-27T00:35:44.400Z,24.84
2023-04-27T00:36:44.488Z,24.84
2023-04-27T00:37:44.533Z,24.84
2023-04-27T00:38:44.606Z,24.84
2023-04-27T00:39:44.645Z,24.84
2023-04-27T00:40:44.705Z,24.84
2023-04-27T00:41:44.749Z,24.84
2023-04-27T00:42:44.830Z,24.85
2023-04-27T00:43:44.878Z,24.84
2023-04-27T00:44:44.935Z,24.84
2023-04-27T00:45:45.054Z,24.84
2023-04-27T00:46:45.063Z,24.84
2023-04-27T00:47:45.135Z,24.84
2023-04-27T00:48:45.165Z,24.84
2023-04-27T00:49:45.244Z,24.84
2023-04-27T00:50:45.295Z,24.84
2023-04-27T00:51:45.348Z,24.84
2023-04-27T00:52:45.404Z,24.83
2023-04-27T00:53:45.443Z,24.84
2023-04-27T00:54:45.496Z,24.84
2023-04-27T00:55:45.537Z,24.84
2023-04-27T00:56:45.614Z,24.83
2023-04-27T00:57:45.704Z,24.83
2023-04-27T00:58:45.753Z,24.84
2023-04-27T00:59:45.839Z,24.82
2023-04-27T01:00:45.896Z,24.83
2023-04-27T01:01:46.023Z,24.84
2023-04-27T01:02:46.145Z,24.83
2023-04-27T01:03:46.277Z,24.83
2023-04-27T01:04:46.221Z,24.83
2023-04-27T01:05:46.267Z,24.84
2023-04-27T01:06:46.356Z,24.83
2023-04-27T01:07:46.419Z,24.83
2023-04-27T01:08:46.477Z,24.84
2023-04-27T01:09:46.559Z,24.84
2023-04-27T01:10:46.561Z,24.83
2023-04-27T01:11:46.666Z,24.83
2023-04-27T01:12:46.691Z,24.84
2023-04-27T01:13:46.752Z,24.83
2023-04-27T01:14:46.802Z,24.84
2023-04-27T01:15:46.899Z,24.84
2023-04-27T01:16:46.962Z,24.83
2023-04-27T01:17:47.048Z,24.83
2023-04-27T01:18:47.025Z,24.83
2023-04-27T01:19:47.116Z,24.83
2023-04-27T01:20:47.149Z,24.83
2023-04-27T01:21:47.170Z,24.83
2023-04-27T01:22:47.225Z,24.83
2023-04-27T01:23:47.286Z,24.83
2023-04-27T01:24:47.372Z,24.83
2023-04-27T01:25:47.412Z,24.82
2023-04-27T01:26:47.467Z,24.83
2023-04-27T01:27:47.492Z,24.82
2023-04-27T01:28:47.551Z,24.83
2023-04-27T01:29:47.631Z,24.83
2023-04-27T01:30:47.709Z,24.83
2023-04-27T01:31:47.815Z,24.83
2023-04-27T01:32:47.922Z,24.83
2023-04-27T01:33:47.921Z,24.83
2023-04-27T01:34:47.968Z,24.83
2023-04-27T01:35:48.038Z,24.83
2023-04-27T01:36:48.064Z,24.82
2023-04-27T01:37:48.145Z,24.82
2023-04-27T01:38:48.193Z,24.82
2023-04-27T01:39:48.265Z,24.83
2023-04-27T01:40:48.309Z,24.83
2023-04-27T01:41:48.371Z,24.83
2023-04-27T01:42:48.398Z,24.83
2023-04-27T01:43:48.429Z,24.82
2023-04-27T01:44:48.518Z,24.83
2023-04-27T01:45:48.673Z,24.83
2023-04-27T01:46:48.642Z,24.83
2023-04-27T01:47:48.741Z,24.82
2023-04-27T01:48:48.702Z,24.83
2023-04-27T01:49:48.755Z,24.82
2023-04-27T01:50:48.824Z,24.83
2023-04-27T01:51:48.862Z,24.82
2023-04-27T01:52:48.913Z,24.82
2023-04-27T01:53:48.971Z,24.83
2023-04-27T01:54:49.045Z,24.82
2023-04-27T01:55:49.134Z,24.82
2023-04-27T01:56:49.141Z,24.83
2023-04-27T01:57:49.198Z,24.82
2023-04-27T01:58:49.227Z,24.83
2023-04-27T01:59:49.272Z,24.82
2023-04-27T02:00:49.304Z,24.82
2023-04-27T02:01:49.402Z,24.82
2023-04-27T02:02:49.471Z,24.83
2023-04-27T02:03:49.577Z,24.82
2023-04-27T02:04:49.575Z,24.82
2023-04-27T02:05:49.539Z,24.82
2023-04-27T02:06:49.577Z,24.82
2023-04-27T02:07:49.610Z,24.82
2023-04-27T02:08:49.684Z,24.83
2023-04-27T02:09:49.700Z,24.83
2023-04-27T02:10:49.756Z,24.82
2023-04-27T02:11:49.804Z,24.83
2023-04-27T02:12:49.827Z,24.82
2023-04-27T02:13:49.891Z,24.82
2023-04-27T02:14:49.921Z,24.82
2023-04-27T02:15:49.981Z,24.82
2023-04-27T02:16:49.993Z,24.82
2023-04-27T02:17:50.018Z,24.83
2023-04-27T02:18:50.020Z,24.83
2023-04-27T02:19:50.120Z,24.82
2023-04-27T02:20:50.194Z,24.82
2023-04-27T02:21:50.235Z,24.82
2023-04-27T02:22:50.253Z,24.82
2023-04-27T02:23:50.291Z,24.83
2023-04-27T02:24:50.330Z,24.82
2023-04-27T02:25:50.340Z,24.83
2023-04-27T02:26:50.341Z,24.83
2023-04-27T02:27:50.377Z,24.83
2023-04-27T02:28:50.406Z,24.82
2023-04-27T02:29:50.417Z,24.82
2023-04-27T02:30:50.461Z,24.83
2023-04-27T02:31:50.576Z,24.82
2023-04-27T02:32:50.592Z,24.82
2023-04-27T02:33:50.568Z,24.82
2023-04-27T02:34:50.624Z,24.83
2023-04-27T02:35:50.682Z,24.82
2023-04-27T02:36:50.724Z,24.82
2023-04-27T02:37:50.744Z,24.83
2023-04-27T02:38:50.796Z,24.83
2023-04-27T02:39:50.864Z,24.82
2023-04-27T02:40:51.000Z,24.83
2023-04-27T02:41:51.037Z,24.82
2023-04-27T02:42:51.120Z,24.82
2023-04-27T02:43:51.136Z,24.82
2023-04-27T02:44:51.149Z,24.82
2023-04-27T02:45:51.176Z,24.82
2023-04-27T02:46:51.273Z,24.82
2023-04-27T02:47:51.297Z,24.83
2023-04-27T02:48:51.280Z,24.82
2023-04-27T02:49:51.299Z,24.82
2023-04-27T02:50:51.353Z,24.82
2023-04-27T02:51:51.428Z,24.82
2023-04-27T02:52:51.460Z,24.82
2023-04-27T02:53:51.516Z,24.82
2023-04-27T02:54:51.595Z,24.82
2023-04-27T02:55:51.661Z,24.82
2023-04-27T02:56:51.763Z,24.82
2023-04-27T02:57:51.798Z,24.82
2023-04-27T02:58:51.849Z,24.82
2023-04-27T02:59:51.899Z,24.82
2023-04-27T03:00:51.961Z,24.82
2023-04-27T03:01:51.983Z,24.82
2023-04-27T03:02:52.134Z,24.82
2023-04-27T03:03:52.332Z,24.82
2023-04-27T03:04:52.144Z,24.81
2023-04-27T03:05:52.178Z,24.82
2023-04-27T03:06:52.264Z,24.81
2023-04-27T03:07:52.351Z,24.82
2023-04-27T03:08:52.386Z,24.82
2023-04-27T03:09:52.422Z,24.82
2023-04-27T03:10:52.430Z,24.82
2023-04-27T03:11:52.478Z,24.82
2023-04-27T03:12:52.489Z,24.82
2023-04-27T03:13:52.515Z,24.82
2023-04-27T03:14:52.557Z,24.82
2023-04-27T03:15:52.563Z,24.82
2023-04-27T03:16:52.780Z,24.82
2023-04-27T03:17:52.803Z,24.82
2023-04-27T03:18:52.763Z,24.82
2023-04-27T03:19:52.782Z,24.82
2023-04-27T03:20:52.840Z,24.82
2023-04-27T03:21:52.905Z,24.82
2023-04-27T03:22:52.936Z,24.82
2023-04-27T03:23:52.966Z,24.82
2023-04-27T03:24:53.007Z,24.82
2023-04-27T03:25:53.028Z,24.82
2023-04-27T03:26:53.078Z,24.82
2023-04-27T03:27:53.128Z,24.82
2023-04-27T03:28:53.149Z,24.82
2023-04-27T03:29:53.201Z,24.83
2023-04-27T03:30:53.299Z,24.82
2023-04-27T03:31:53.384Z,24.82
2023-04-27T03:32:53.489Z,24.83
2023-04-27T03:33:53.548Z,24.82
2023-04-27T03:34:53.613Z,24.82
2023-04-27T03:35:53.642Z,24.82
2023-04-27T03:36:53.675Z,24.82
2023-04-27T03:37:53.745Z,24.82
2023-04-27T03:38:53.802Z,24.83
2023-04-27T03:39:53.853Z,24.83
2023-04-27T03:40:53.877Z,24.83
2023-04-27T03:41:53.942Z,24.83
2023-04-27T03:42:53.962Z,24.82
2023-04-27T03:43:54.026Z,24.83
2023-04-27T03:44:54.093Z,24.82
2023-04-27T03:45:54.182Z,24.82
2023-04-27T03:46:54.182Z,24.82
2023-04-27T03:47:54.252Z,24.83
2023-04-27T03:48:54.284Z,24.83
2023-04-27T03:49:54.334Z,24.82
2023-04-27T03:50:54.385Z,24.83
2023-04-27T03:51:54.476Z,24.82
2023-04-27T03:52:54.524Z,24.82
2023-04-27T03:53:54.593Z,24.83
2023-04-27T03:54:54.633Z,24.83
2023-04-27T03:55:54.668Z,24.82
2023-04-27T03:56:54.725Z,24.83
2023-04-27T03:57:54.836Z,24.83
2023-04-27T03:58:54.832Z,24.82
2023-04-27T03:59:54.882Z,24.82
2023-04-27T04:00:54.921Z,24.83
2023-04-27T04:01:55.064Z,24.83
2023-04-27T04:02:55.218Z,24.83
2023-04-27T04:03:55.189Z,24.83
2023-04-27T04:04:55.205Z,24.83
2023-04-27T04:05:55.231Z,24.83
2023-04-27T04:06:55.279Z,24.83
2023-04-27T04:07:55.329Z,24.82
2023-04-27T04:08:55.353Z,24.82
2023-04-27T04:09:55.386Z,24.83
2023-04-27T04:10:55.443Z,24.83
2023-04-27T04:11:55.496Z,24.83
2023-04-27T04:12:55.511Z,24.83
2023-04-27T04:13:55.556Z,24.82
2023-04-27T04:14:55.604Z,24.83
2023-04-27T04:15:55.690Z,24.82
2023-04-27T04:16:55.665Z,24.82
2023-04-27T04:17:55.749Z,24.83
2023-04-27T04:18:55.761Z,24.83
2023-04-27T04:19:55.796Z,24.83
2023-04-27T04:20:55.840Z,24.82
2023-04-27T04:21:55.888Z,24.82
2023-04-27T04:22:55.923Z,24.83
2023-04-27T04:23:55.990Z,24.83
2023-04-27T04:24:56.034Z,24.83
2023-04-27T04:25:56.105Z,24.83
2023-04-27T04:26:56.200Z,24.83
2023-04-27T04:27:56.213Z,24.83
2023-04-27T04:28:56.257Z,24.83
2023-04-27T04:29:56.263Z,24.83
2023-04-27T04:30:56.346Z,24.83
2023-04-27T04:31:56.385Z,24.83
2023-04-27T04:32:56.431Z,24.83
2023-04-27T04:33:56.457Z,24.84
2023-04-27T04:34:56.538Z,24.84
2023-04-27T04:35:56.629Z,24.83
2023-04-27T04:36:56.687Z,24.84
2023-04-27T04:37:56.736Z,24.83
2023-04-27T04:38:56.792Z,24.83
2023-04-27T04:39:56.855Z,24.83
2023-04-27T04:40:56.915Z,24.83
2023-04-27T04:41:56.943Z,24.83
2023-04-27T04:42:57.007Z,24.83
2023-04-27T04:43:57.069Z,24.83
2023-04-27T04:44:57.111Z,24.84
2023-04-27T04:45:57.189Z,24.83
2023-04-27T04:46:57.300Z,24.84
2023-04-27T04:47:57.290Z,24.84
2023-04-27T04:48:57.381Z,24.84
2023-04-27T04:49:57.389Z,24.84
2023-04-27T04:50:57.450Z,24.84
2023-04-27T04:51:57.477Z,24.84
2023-04-27T04:52:57.538Z,24.84
2023-04-27T04:53:58.377Z,24.84
2023-04-27T04:54:57.660Z,24.84
2023-04-27T04:55:57.724Z,24.84
2023-04-27T04:56:57.753Z,24.84
2023-04-27T04:57:57.809Z,24.84
2023-04-27T04:58:57.852Z,24.84
2023-04-27T04:59:57.922Z,24.85
2023-04-27T05:00:58.005Z,24.85
2023-04-27T05:01:58.196Z,24.85
2023-04-27T05:02:58.232Z,24.86
2023-04-27T05:03:58.305Z,24.86
2023-04-27T05:04:58.282Z,24.86
2023-04-27T05:05:58.309Z,24.87
2023-04-27T05:06:58.330Z,24.86
2023-04-27T05:07:58.411Z,24.87
2023-04-27T05:08:58.479Z,24.87
2023-04-27T05:09:58.553Z,24.87
2023-04-27T05:10:58.617Z,24.88
2023-04-27T05:11:58.645Z,24.88
2023-04-27T05:12:58.750Z,24.87
2023-04-27T05:13:58.760Z,24.88
2023-04-27T05:14:58.838Z,24.88
2023-04-27T05:15:58.965Z,24.88
2023-04-27T05:16:58.962Z,24.87
2023-04-27T05:17:59.055Z,24.88
2023-04-27T05:18:59.519Z,24.88
2023-04-27T05:19:59.242Z,24.88
2023-04-27T05:20:59.176Z,24.88
2023-04-27T05:21:59.186Z,24.87
2023-04-27T05:22:59.294Z,24.87
2023-04-27T05:23:59.271Z,24.88
2023-04-27T05:24:59.347Z,24.88
2023-04-27T05:25:59.401Z,24.88
2023-04-27T05:27:02.016Z,24.88
2023-04-27T05:27:59.423Z,24.87
2023-04-27T05:28:59.496Z,24.89
2023-04-27T05:29:59.406Z,24.90
2023-04-27T05:30:59.457Z,24.90
2023-04-27T05:31:59.534Z,24.91
2023-04-27T05:32:59.510Z,24.92
2023-04-27T05:33:59.470Z,24.95
2023-04-27T05:34:59.428Z,24.98
2023-04-27T05:35:59.395Z,25.01
2023-04-27T05:36:59.395Z,25.05
2023-04-27T05:37:59.394Z,25.08
2023-04-27T05:38:59.377Z,25.11
2023-04-27T05:39:59.416Z,25.13
2023-04-27T05:40:59.371Z,25.15
2023-04-27T05:41:59.370Z,25.17
2023-04-27T05:42:59.342Z,25.18
2023-04-27T05:43:59.311Z,25.19
2023-04-27T05:44:59.303Z,25.21
2023-04-27T05:45:59.365Z,25.22
2023-04-27T05:46:59.288Z,25.23
2023-04-27T05:47:59.422Z,25.24
2023-04-27T05:48:59.286Z,25.25
2023-04-27T05:49:59.286Z,25.26
2023-04-27T05:50:59.301Z,25.27
2023-04-27T05:51:59.255Z,25.27
2023-04-27T05:52:59.255Z,25.29
2023-04-27T05:53:59.255Z,25.30
2023-04-27T05:54:59.249Z,25.30
2023-04-27T05:55:59.278Z,25.32
2023-04-27T05:56:59.215Z,25.33
2023-04-27T05:58:07.812Z,25.34
2023-04-27T05:59:02.565Z,25.34
2023-04-27T05:59:59.214Z,25.35
2023-04-27T06:00:59.218Z,25.34
2023-04-27T06:01:59.212Z,25.35
2023-04-27T06:02:59.273Z,25.36
2023-04-27T06:03:59.263Z,25.38
2023-04-27T06:04:59.195Z,25.38
2023-04-27T06:05:59.626Z,25.39
2023-04-27T06:06:59.178Z,25.40
2023-04-27T06:07:59.165Z,25.42
2023-04-27T06:08:59.182Z,25.42
2023-04-27T06:09:59.146Z,25.44
2023-04-27T06:10:59.147Z,25.44
2023-04-27T06:11:59.184Z,25.44
2023-04-27T06:12:59.569Z,25.46
2023-04-27T06:13:59.124Z,25.46
2023-04-27T06:14:59.172Z,25.48
2023-04-27T06:15:59.196Z,25.49
2023-04-27T06:16:59.105Z,25.48
2023-04-27T06:17:59.177Z,25.48
2023-04-27T06:18:59.093Z,25.48
2023-04-27T06:19:59.110Z,25.48
2023-04-27T06:20:59.089Z,25.48
2023-04-27T06:21:59.073Z,25.49
2023-04-27T06:22:59.090Z,25.50
2023-04-27T06:23:59.092Z,25.49
2023-04-27T06:24:59.105Z,25.49
2023-04-27T06:25:59.552Z,25.50
2023-04-27T06:26:59.026Z,25.50
2023-04-27T06:27:59.113Z,25.52
2023-04-27T06:28:59.022Z,25.52
2023-04-27T06:29:59.009Z,25.53
2023-04-27T06:30:59.089Z,25.54
2023-04-27T06:31:59.098Z,25.55
2023-04-27T06:32:59.044Z,25.56
2023-04-27T06:33:59.002Z,25.55
2023-04-27T06:34:59.003Z,25.56
2023-04-27T06:35:59.122Z,25.57
2023-04-27T06:36:58.965Z,25.60
2023-04-27T06:37:59.291Z,25.63
2023-04-27T06:38:58.973Z,25.66
2023-04-27T06:39:58.993Z,25.68
2023-04-27T06:40:58.944Z,25.70
2023-04-27T06:41:58.947Z,25.71
2023-04-27T06:42:58.967Z,25.74
2023-04-27T06:43:59.268Z,25.75
2023-04-27T06:44:58.953Z,25.77
2023-04-27T06:45:58.929Z,25.78
2023-04-27T06:46:58.913Z,25.81
2023-04-27T06:47:59.121Z,25.82
2023-04-27T06:48:58.895Z,25.83
2023-04-27T06:49:58.868Z,25.84
2023-04-27T06:50:58.884Z,25.85
2023-04-27T06:51:58.873Z,25.86
2023-04-27T06:52:58.866Z,25.86
2023-04-27T06:53:59.587Z,25.87
2023-04-27T06:54:58.860Z,25.88
2023-04-27T06:55:58.906Z,25.88
2023-04-27T06:56:58.844Z,25.89
2023-04-27T06:57:58.835Z,25.90
2023-04-27T06:58:58.814Z,25.90
2023-04-27T06:59:58.820Z,25.92
2023-04-27T07:00:59.151Z,25.92
2023-04-27T07:01:59.217Z,25.92
2023-04-27T07:02:58.999Z,25.92
2023-04-27T07:03:59.718Z,25.92
2023-04-27T07:04:59.018Z,25.92
2023-04-27T07:05:58.957Z,25.92
2023-04-27T07:06:59.039Z,25.93
2023-04-27T07:08:01.558Z,25.93
2023-04-27T07:08:59.091Z,25.93
2023-04-27T07:09:59.105Z,25.93
2023-04-27T07:10:59.039Z,25.93
2023-04-27T07:11:59.035Z,25.92
2023-04-27T07:12:59.053Z,25.92
2023-04-27T07:13:59.048Z,25.89
2023-04-27T07:14:59.021Z,25.89
2023-04-27T07:15:59.028Z,25.91
2023-04-27T07:16:59.004Z,25.91
2023-04-27T07:17:59.100Z,25.92
2023-04-27T07:18:59.383Z,25.91
2023-04-27T07:19:59.167Z,25.92
2023-04-27T07:20:59.194Z,25.92
2023-04-27T07:21:59.238Z,25.93
2023-04-27T07:22:59.611Z,25.93
2023-04-27T07:23:59.319Z,25.93
2023-04-27T07:24:59.354Z,25.90
2023-04-27T07:25:59.427Z,25.88
2023-04-27T07:26:59.483Z,25.88
2023-04-27T07:27:59.649Z,25.89
2023-04-27T07:28:59.541Z,25.86
2023-04-27T07:29:59.548Z,25.87
2023-04-27T07:30:59.499Z,25.89
2023-04-27T07:31:59.596Z,25.91
2023-04-27T07:32:59.609Z,25.92
2023-04-27T07:33:59.583Z,25.92
2023-04-27T07:34:59.628Z,25.93
2023-04-27T07:35:59.670Z,25.95
2023-04-27T07:36:59.741Z,25.95
2023-04-27T07:37:59.754Z,25.96
2023-04-27T07:38:59.842Z,25.96
2023-04-27T07:39:59.898Z,25.97
2023-04-27T07:40:59.929Z,25.98
2023-04-27T07:41:59.990Z,25.98
2023-04-27T07:43:00.062Z,25.98
2023-04-27T07:44:00.156Z,26.00
2023-04-27T07:45:00.205Z,26.00
2023-04-27T07:46:00.308Z,25.99
2023-04-27T07:47:00.266Z,26.00
2023-04-27T07:48:00.456Z,26.00
2023-04-27T07:49:00.391Z,26.02
2023-04-27T07:50:00.420Z,26.02
2023-04-27T07:51:00.505Z,26.03
2023-04-27T07:52:00.554Z,26.03
2023-04-27T07:53:00.627Z,26.04
2023-04-27T07:54:00.647Z,26.03
2023-04-27T07:55:00.710Z,26.04
2023-04-27T07:56:00.788Z,26.04
2023-04-27T07:57:00.836Z,26.04
2023-04-27T07:58:00.916Z,26.05
2023-04-27T07:59:00.979Z,26.05
2023-04-27T08:00:01.012Z,26.05
2023-04-27T08:01:01.086Z,26.04
2023-04-27T08:02:17.620Z,26.04
2023-04-27T08:03:02.567Z,26.04
2023-04-27T08:04:01.215Z,26.04
2023-04-27T08:05:01.312Z,26.05
2023-04-27T08:06:01.455Z,26.05
2023-04-27T08:07:01.597Z,26.05
2023-04-27T08:08:01.782Z,26.05
2023-04-27T08:09:01.127Z,26.05
2023-04-27T08:10:01.082Z,26.05
2023-04-27T08:11:01.131Z,26.06
2023-04-27T08:12:01.171Z,26.06
2023-04-27T08:13:01.186Z,26.05
2023-04-27T08:14:01.435Z,26.06
2023-04-27T08:15:01.309Z,26.05
2023-04-27T08:16:01.405Z,26.06
2023-04-27T08:17:01.586Z,26.06
2023-04-27T08:18:01.501Z,26.07
2023-04-27T08:19:01.517Z,26.06
2023-04-27T08:20:01.637Z,26.03
2023-04-27T08:21:02.116Z,26.04
2023-04-27T08:22:01.739Z,26.06
2023-04-27T08:23:01.781Z,26.08
2023-04-27T08:24:01.819Z,26.10
2023-04-27T08:25:01.878Z,26.12
2023-04-27T08:26:02.149Z,26.14
2023-04-27T08:27:01.979Z,26.15
2023-04-27T08:28:02.035Z,26.16
2023-04-27T08:29:11.765Z,26.17
2023-04-27T08:30:03.086Z,26.18
2023-04-27T08:31:02.086Z,26.20
2023-04-27T08:32:02.088Z,26.21
2023-04-27T08:33:02.101Z,26.23
2023-04-27T08:34:02.059Z,26.22
2023-04-27T08:35:02.033Z,26.22
2023-04-27T08:36:02.115Z,26.18
2023-04-27T08:37:02.047Z,26.12
2023-04-27T08:38:02.040Z,26.08
2023-04-27T08:39:02.079Z,26.06
2023-04-27T08:40:02.097Z,26.05
2023-04-27T08:41:10.900Z,26.06
2023-04-27T08:42:03.119Z,26.05
2023-04-27T08:43:02.103Z,26.05
2023-04-27T08:44:02.098Z,26.04
2023-04-27T08:45:02.147Z,26.04
2023-04-27T08:46:02.102Z,26.04
2023-04-27T08:47:02.088Z,26.04
2023-04-27T08:48:02.210Z,26.04
2023-04-27T08:49:02.065Z,26.05
2023-04-27T08:50:02.058Z,26.05
2023-04-27T08:51:02.046Z,26.05
2023-04-27T08:52:02.086Z,26.05
2023-04-27T08:53:02.153Z,26.06
2023-04-27T08:54:02.642Z,26.06
2023-04-27T08:55:02.257Z,26.06
2023-04-27T08:56:02.314Z,26.07
2023-04-27T08:57:02.372Z,26.06
2023-04-27T08:58:02.426Z,26.06
2023-04-27T08:59:02.662Z,26.08
2023-04-27T09:00:02.509Z,26.10
2023-04-27T09:01:02.559Z,26.03
2023-04-27T09:02:02.676Z,25.99
2023-04-27T09:03:02.816Z,25.96
2023-04-27T09:04:03.027Z,25.94
2023-04-27T09:05:02.842Z,25.93
2023-04-27T09:06:05.622Z,25.92
2023-04-27T09:07:02.719Z,25.91
2023-04-27T09:08:03.666Z,25.91
2023-04-27T09:09:02.722Z,25.91
2023-04-27T09:10:02.714Z,25.88
2023-04-27T09:11:02.710Z,25.95
2023-04-27T09:12:02.715Z,25.98
2023-04-27T09:13:02.710Z,26.01
2023-04-27T09:14:02.697Z,26.04
2023-04-27T09:15:02.679Z,26.04
2023-04-27T09:16:02.723Z,26.06
2023-04-27T09:17:02.666Z,26.06
2023-04-27T09:18:02.691Z,26.06
2023-04-27T09:19:02.675Z,26.06
2023-04-27T09:20:02.662Z,26.05
2023-04-27T09:21:02.663Z,26.03
2023-04-27T09:22:02.628Z,26.03
2023-04-27T09:23:02.628Z,26.01
2023-04-27T09:24:02.609Z,26.00
2023-04-27T09:25:02.631Z,25.97
2023-04-27T09:26:02.692Z,25.96
2023-04-27T09:27:02.619Z,25.97
2023-04-27T09:28:02.609Z,25.98
2023-04-27T09:29:02.644Z,25.99
2023-04-27T09:30:02.615Z,26.01
2023-04-27T09:31:02.668Z,25.99
2023-04-27T09:32:02.630Z,25.95
2023-04-27T09:33:02.583Z,25.93
2023-04-27T09:34:02.585Z,25.93
2023-04-27T09:35:02.566Z,25.96
2023-04-27T09:36:02.572Z,25.99
2023-04-27T09:37:02.530Z,26.03
2023-04-27T09:38:02.574Z,26.06
2023-04-27T09:39:02.629Z,26.10
2023-04-27T09:40:02.651Z,26.13
2023-04-27T09:41:03.178Z,26.14
2023-04-27T09:42:02.795Z,26.16
2023-04-27T09:43:02.791Z,26.17
2023-04-27T09:44:02.863Z,26.17
2023-04-27T09:45:02.872Z,26.19
2023-04-27T09:46:02.986Z,26.20
2023-04-27T09:47:02.969Z,26.21
2023-04-27T09:48:03.105Z,26.24
2023-04-27T09:49:03.140Z,26.26
2023-04-27T09:50:03.108Z,26.29
2023-04-27T09:51:03.669Z,26.31
2023-04-27T09:52:03.237Z,26.31
2023-04-27T09:53:03.241Z,26.27
2023-04-27T09:54:03.278Z,26.25
2023-04-27T09:55:03.339Z,26.26
2023-04-27T09:56:03.654Z,26.25
2023-04-27T09:57:03.400Z,26.25
2023-04-27T09:58:03.442Z,26.27
2023-04-27T09:59:03.539Z,26.29
2023-04-27T10:00:03.529Z,26.31
2023-04-27T10:01:03.615Z,26.33
2023-04-27T10:02:17.070Z,26.37
2023-04-27T10:03:04.668Z,26.41
2023-04-27T10:04:03.815Z,26.44
2023-04-27T10:05:03.647Z,26.45
2023-04-27T10:06:03.608Z,26.47
2023-04-27T10:07:03.661Z,26.48
2023-04-27T10:08:03.576Z,26.49
2023-04-27T10:09:03.572Z,26.49
2023-04-27T10:10:03.577Z,26.48
2023-04-27T10:11:03.564Z,26.46
2023-04-27T10:12:03.588Z,26.45
2023-04-27T10:13:03.564Z,26.47
2023-04-27T10:14:03.548Z,26.47
2023-04-27T10:15:03.552Z,26.46
2023-04-27T10:16:03.558Z,26.47
2023-04-27T10:17:03.685Z,26.47
2023-04-27T10:18:03.626Z,26.48
2023-04-27T10:19:03.644Z,26.47
2023-04-27T10:20:03.681Z,26.49
2023-04-27T10:21:03.695Z,26.49
2023-04-27T10:22:03.776Z,26.46
2023-04-27T10:23:03.846Z,26.47
2023-04-27T10:24:04.225Z,26.46
2023-04-27T10:25:03.873Z,26.46
2023-04-27T10:26:03.974Z,26.45
2023-04-27T10:27:03.919Z,26.44
2023-04-27T10:28:03.964Z,26.41
2023-04-27T10:29:04.047Z,26.37
2023-04-27T10:30:04.065Z,26.33
2023-04-27T10:31:04.156Z,26.30
2023-04-27T10:32:04.145Z,26.26
2023-04-27T10:33:04.268Z,26.25
2023-04-27T10:34:04.282Z,26.22
2023-04-27T10:35:04.324Z,26.20
2023-04-27T10:36:04.358Z,26.18
2023-04-27T10:37:04.462Z,26.14
2023-04-27T10:38:04.498Z,26.13
2023-04-27T10:39:04.545Z,26.10
2023-04-27T10:40:07.179Z,26.07
2023-04-27T10:41:04.829Z,26.04
2023-04-27T10:42:04.833Z,26.02
2023-04-27T10:43:04.850Z,25.99
2023-04-27T10:44:04.848Z,25.97
2023-04-27T10:45:04.911Z,25.95
2023-04-27T10:46:04.911Z,25.93
2023-04-27T10:47:04.867Z,25.90
2023-04-27T10:48:04.940Z,25.89
2023-04-27T10:49:04.874Z,25.90
2023-04-27T10:50:04.910Z,25.90
2023-04-27T10:51:04.874Z,25.88
2023-04-27T10:52:05.206Z,25.87
2023-04-27T10:53:04.918Z,25.88
2023-04-27T10:54:04.894Z,25.87
2023-04-27T10:55:05.186Z,25.85
2023-04-27T10:56:04.897Z,25.85
2023-04-27T10:57:04.894Z,25.85
2023-04-27T10:58:04.898Z,25.84
2023-04-27T10:59:04.881Z,25.82
2023-04-27T11:00:04.907Z,25.82
2023-04-27T11:01:04.899Z,25.78
2023-04-27T11:02:05.014Z,25.76
2023-04-27T11:03:04.934Z,25.74
2023-04-27T11:04:04.903Z,25.72
2023-04-27T11:05:05.017Z,25.71
2023-04-27T11:06:04.986Z,25.69
2023-04-27T11:07:04.939Z,25.68
2023-04-27T11:08:04.951Z,25.67
2023-04-27T11:09:05.003Z,25.66
2023-04-27T11:10:05.035Z,25.65
2023-04-27T11:11:05.005Z,25.64
2023-04-27T11:12:04.997Z,25.63
2023-04-27T11:13:05.019Z,25.62
2023-04-27T11:14:05.736Z,25.62
2023-04-27T11:15:05.064Z,25.61
2023-04-27T11:16:05.124Z,25.59
2023-04-27T11:17:05.083Z,25.60
2023-04-27T11:18:05.206Z,25.61
2023-04-27T11:19:05.169Z,25.62
2023-04-27T11:20:05.146Z,25.63
2023-04-27T11:21:05.163Z,25.64
2023-04-27T11:22:05.710Z,25.64
2023-04-27T11:23:05.197Z,25.61
2023-04-27T11:24:05.220Z,25.58
2023-04-27T11:25:05.254Z,25.55
2023-04-27T11:26:05.281Z,25.47
2023-04-27T11:27:05.360Z,25.43
2023-04-27T11:28:05.403Z,25.39
2023-04-27T11:29:05.535Z,25.34
2023-04-27T11:30:05.511Z,25.27
2023-04-27T11:31:05.571Z,25.24
2023-04-27T11:32:05.790Z,25.24
2023-04-27T11:33:05.733Z,25.24
2023-04-27T11:34:05.736Z,25.23
2023-04-27T11:35:05.806Z,25.24
2023-04-27T11:36:05.870Z,25.25
2023-04-27T11:37:16.801Z,25.25
2023-04-27T11:38:06.883Z,25.25
2023-04-27T11:39:05.978Z,25.27
2023-04-27T11:40:05.877Z,25.28
2023-04-27T11:41:05.892Z,25.29
2023-04-27T11:42:05.891Z,25.31
2023-04-27T11:43:05.853Z,25.33
2023-04-27T11:44:05.872Z,25.33
2023-04-27T11:45:05.859Z,25.34
2023-04-27T11:46:05.872Z,25.33
2023-04-27T11:47:05.854Z,25.34
2023-04-27T11:48:05.869Z,25.34
2023-04-27T11:49:05.852Z,25.35
2023-04-27T11:50:05.814Z,25.35
2023-04-27T11:51:05.838Z,25.35
2023-04-27T11:52:05.887Z,25.36
2023-04-27T11:53:05.908Z,25.37
2023-04-27T11:54:05.934Z,25.38
2023-04-27T11:55:05.958Z,25.38
2023-04-27T11:56:05.995Z,25.37
2023-04-27T11:57:06.040Z,25.38
2023-04-27T11:58:06.060Z,25.37
2023-04-27T11:59:06.097Z,25.38
2023-04-27T12:00:06.308Z,25.38
2023-04-27T12:01:06.128Z,25.38
2023-04-27T12:02:06.193Z,25.38
2023-04-27T12:03:06.338Z,25.38
2023-04-27T12:04:06.369Z,25.37
2023-04-27T12:05:06.456Z,25.38
2023-04-27T12:06:27.650Z,25.38
2023-04-27T12:07:07.272Z,25.37
2023-04-27T12:08:06.237Z,25.38
2023-04-27T12:09:06.225Z,25.39
2023-04-27T12:10:06.243Z,25.39
2023-04-27T12:11:06.230Z,25.40
2023-04-27T12:12:06.229Z,25.39
2023-04-27T12:13:06.219Z,25.39
2023-04-27T12:14:06.204Z,25.39
2023-04-27T12:15:06.199Z,25.39
2023-04-27T12:16:06.238Z,25.40
2023-04-27T12:17:06.276Z,25.39
2023-04-27T12:18:06.229Z,25.40
2023-04-27T12:19:06.172Z,25.40
2023-04-27T12:20:06.232Z,25.40
2023-04-27T12:21:07.715Z,25.40
2023-04-27T12:22:06.176Z,25.40
2023-04-27T12:23:06.134Z,25.40
2023-04-27T12:24:06.151Z,25.40
2023-04-27T12:25:06.202Z,25.40
2023-04-27T12:26:06.239Z,25.39
2023-04-27T12:27:06.245Z,25.39
2023-04-27T12:28:06.296Z,25.39
2023-04-27T12:29:06.276Z,25.39
2023-04-27T12:30:06.341Z,25.38
2023-04-27T12:31:06.348Z,25.38
2023-04-27T12:32:06.360Z,25.38
2023-04-27T12:33:06.455Z,25.37
2023-04-27T12:34:06.435Z,25.37
2023-04-27T12:35:06.740Z,25.36
2023-04-27T12:36:06.480Z,25.36
2023-04-27T12:37:06.500Z,25.37
2023-04-27T12:38:06.547Z,25.39
2023-04-27T12:39:06.564Z,25.41
2023-04-27T12:40:06.594Z,25.43
2023-04-27T12:41:06.658Z,25.44
2023-04-27T12:42:06.665Z,25.46
2023-04-27T12:43:06.694Z,25.46
2023-04-27T12:44:06.705Z,25.47
2023-04-27T12:45:06.736Z,25.48
2023-04-27T12:46:06.835Z,25.49
2023-04-27T12:47:07.233Z,25.49
2023-04-27T12:48:06.797Z,25.49
2023-04-27T12:49:06.874Z,25.50
2023-04-27T12:50:06.841Z,25.52
2023-04-27T12:51:06.929Z,25.54
2023-04-27T12:52:07.231Z,25.56
2023-04-27T12:53:06.915Z,25.58